createdAt,value
2019-06-15T00:02:42.592Z,52.10
2019-06-15T00:05:29.936Z,52.10
2019-06-15T00:08:16.928Z,52.20
2019-06-15T00:11:03.998Z,52.10
2019-06-15T00:13:51.357Z,52.30
2019-06-15T00:16:38.861Z,52.20
2019-06-15T00:19:26.192Z,52.10
2019-06-15T00:22:13.434Z,52.20
2019-06-15T00:25:01.087Z,52.20
2019-06-15T00:27:48.594Z,52.20
2019-06-15T00:30:35.994Z,52.20
2019-06-15T00:33:23.002Z,52.30
2019-06-15T00:36:10.405Z,52.20
2019-06-15T00:38:57.707Z,52.20
2019-06-15T00:41:44.952Z,52.30
2019-06-15T00:44:32.004Z,52.60
2019-06-15T00:47:19.639Z,52.20
2019-06-15T00:50:07.254Z,52.30
2019-06-15T00:52:54.255Z,52.30
2019-06-15T00:55:41.575Z,52.30
2019-06-15T00:58:28.898Z,52.30
2019-06-15T01:01:16.045Z,52.30
2019-06-15T01:04:03.602Z,52.30
2019-06-15T01:06:50.902Z,52.30
2019-06-15T01:09:38.054Z,52.30
2019-06-15T01:12:25.370Z,52.30
2019-06-15T01:15:12.629Z,52.30
2019-06-15T01:18:00.202Z,52.30
2019-06-15T01:20:48.110Z,52.30
2019-06-15T01:23:35.796Z,52.30
2019-06-15T01:26:23.046Z,52.30
2019-06-15T01:29:10.515Z,52.30
2019-06-15T01:31:57.805Z,52.30
2019-06-15T01:34:45.294Z,52.40
2019-06-15T01:37:32.525Z,52.40
2019-06-15T01:40:19.349Z,52.30
2019-06-15T01:43:06.885Z,52.30
2019-06-15T01:45:53.802Z,52.30
2019-06-15T01:48:41.694Z,52.80
2019-06-15T01:51:29.347Z,52.40
2019-06-15T01:54:16.946Z,52.40
2019-06-15T01:57:04.155Z,52.40
2019-06-15T01:59:52.086Z,52.40
2019-06-15T02:02:39.386Z,52.40
2019-06-15T02:05:26.963Z,52.50
2019-06-15T02:08:14.332Z,52.40
2019-06-15T02:11:01.868Z,52.50
2019-06-15T02:13:49.546Z,52.50
2019-06-15T02:16:36.742Z,52.50
2019-06-15T02:19:24.598Z,52.60
2019-06-15T02:22:12.274Z,52.60
2019-06-15T02:24:59.390Z,52.50
2019-06-15T02:27:46.606Z,52.50
2019-06-15T02:30:33.920Z,52.60
2019-06-15T02:33:21.257Z,52.60
2019-06-15T02:36:08.554Z,52.60
2019-06-15T02:38:56.079Z,52.60
2019-06-15T02:41:43.522Z,52.60
2019-06-15T02:44:30.746Z,52.60
2019-06-15T02:47:17.752Z,52.60
2019-06-15T02:50:07.883Z,52.60
2019-06-15T02:52:55.525Z,52.70
2019-06-15T02:55:50.533Z,52.70
2019-06-15T02:58:31.901Z,52.70
2019-06-15T03:01:19.009Z,52.80
2019-06-15T03:04:06.943Z,52.70
2019-06-15T03:06:54.394Z,52.70
2019-06-15T03:09:41.707Z,52.70
2019-06-15T03:12:28.662Z,52.70
2019-06-15T03:15:16.066Z,52.70
2019-06-15T03:18:03.117Z,52.70
2019-06-15T03:20:51.146Z,52.70
2019-06-15T03:23:38.975Z,52.70
2019-06-15T03:26:26.307Z,52.70
2019-06-15T03:29:13.905Z,52.70
2019-06-15T03:32:01.130Z,52.70
2019-06-15T03:34:48.597Z,52.80
2019-06-15T03:37:35.748Z,52.70
2019-06-15T03:40:22.864Z,52.70
2019-06-15T03:43:10.882Z,52.70
2019-06-15T03:45:58.379Z,52.70
2019-06-15T03:48:45.758Z,52.70
2019-06-15T03:51:32.974Z,52.70
2019-06-15T03:54:20.783Z,52.80
2019-06-15T03:57:08.122Z,52.70
2019-06-15T03:59:55.743Z,52.70
2019-06-15T04:02:43.403Z,52.70
2019-06-15T04:05:31.068Z,52.70
2019-06-15T04:08:18.639Z,52.70
2019-06-15T04:11:06.229Z,52.70
2019-06-15T04:13:53.690Z,52.70
2019-06-15T04:16:40.722Z,52.70
2019-06-15T04:19:27.983Z,52.70
2019-06-15T04:22:15.374Z,52.70
2019-06-15T04:25:02.503Z,52.80
2019-06-15T04:27:49.927Z,52.70
2019-06-15T04:30:37.552Z,52.70
2019-06-15T04:33:26.043Z,52.80
2019-06-15T04:36:13.582Z,52.80
2019-06-15T04:39:00.611Z,52.90
2019-06-15T04:41:47.648Z,52.90
2019-06-15T04:44:35.030Z,52.90
2019-06-15T04:47:22.366Z,53.30
2019-06-15T04:50:09.442Z,53.70
2019-06-15T04:52:56.646Z,53.70
2019-06-15T04:55:44.054Z,53.90
2019-06-15T04:58:31.718Z,53.90
2019-06-15T05:01:18.923Z,54.00
2019-06-15T05:04:06.204Z,54.10
2019-06-15T05:06:53.486Z,54.10
2019-06-15T05:09:40.790Z,54.20
2019-06-15T05:12:28.254Z,54.30
2019-06-15T05:15:15.451Z,54.50
2019-06-15T05:18:03.015Z,54.60
2019-06-15T05:20:50.610Z,54.70
2019-06-15T05:23:37.961Z,54.90
2019-06-15T05:26:25.289Z,55.00
2019-06-15T05:29:12.242Z,55.10
2019-06-15T05:31:59.966Z,55.20
2019-06-15T05:34:47.255Z,55.20
2019-06-15T05:37:34.308Z,55.20
2019-06-15T05:40:21.702Z,55.20
2019-06-15T05:43:09.218Z,55.10
2019-06-15T05:45:57.668Z,55.00
2019-06-15T05:48:45.383Z,54.90
2019-06-15T05:51:32.925Z,54.90
2019-06-15T05:54:19.979Z,55.00
2019-06-15T05:57:20.928Z,55.00
2019-06-15T05:59:55.956Z,55.20
2019-06-15T06:02:43.594Z,55.10
2019-06-15T06:05:30.814Z,55.10
2019-06-15T06:08:19.274Z,55.10
2019-06-15T06:11:06.772Z,55.10
2019-06-15T06:13:54.461Z,55.10
2019-06-15T06:16:41.593Z,55.40
2019-06-15T06:19:30.330Z,55.40
2019-06-15T06:22:17.686Z,55.40
2019-06-15T06:25:08.785Z,55.30
2019-06-15T06:27:56.567Z,55.20
2019-06-15T06:30:43.543Z,55.20
2019-06-15T06:33:30.866Z,55.20
2019-06-15T06:36:18.593Z,55.00
2019-06-15T06:39:07.421Z,54.80
2019-06-15T06:41:54.452Z,54.60
2019-06-15T06:44:42.210Z,54.50
2019-06-15T06:47:30.662Z,54.30
2019-06-15T06:50:18.029Z,54.20
2019-06-15T06:53:05.477Z,54.10
2019-06-15T06:55:52.914Z,54.20
2019-06-15T06:58:39.606Z,54.10
2019-06-15T07:01:26.966Z,54.00
2019-06-15T07:04:14.003Z,53.90
2019-06-15T07:07:02.151Z,53.80
2019-06-15T07:09:49.722Z,53.80
2019-06-15T07:12:36.820Z,53.80
2019-06-15T07:15:24.345Z,53.80
2019-06-15T07:18:11.087Z,53.70
2019-06-15T07:20:58.782Z,53.70
2019-06-15T07:23:45.806Z,53.60
2019-06-15T07:26:33.093Z,53.60
2019-06-15T07:29:20.498Z,53.50
2019-06-15T07:32:07.802Z,53.50
2019-06-15T07:34:55.634Z,53.50
2019-06-15T07:37:43.040Z,53.40
2019-06-15T07:40:30.621Z,53.40
2019-06-15T07:43:17.628Z,53.30
2019-06-15T07:46:05.298Z,53.30
2019-06-15T07:48:52.938Z,53.20
2019-06-15T07:51:40.683Z,53.20
2019-06-15T07:54:28.844Z,53.20
2019-06-15T07:57:15.809Z,53.20
2019-06-15T08:00:06.381Z,53.10
2019-06-15T08:02:53.950Z,53.00
2019-06-15T08:05:42.055Z,53.00
2019-06-15T08:08:29.831Z,52.90
2019-06-15T08:11:17.170Z,53.00
2019-06-15T08:14:04.966Z,52.90
2019-06-15T08:16:53.363Z,53.00
2019-06-15T08:19:40.744Z,53.00
2019-06-15T08:22:27.862Z,52.90
2019-06-15T08:25:15.423Z,52.90
2019-06-15T08:28:03.348Z,52.90
2019-06-15T08:30:50.613Z,52.90
2019-06-15T08:33:37.703Z,52.80
2019-06-15T08:36:24.986Z,52.80
2019-06-15T08:39:12.584Z,52.90
2019-06-15T08:42:00.013Z,52.80
2019-06-15T08:44:47.602Z,53.00
2019-06-15T08:47:36.040Z,53.00
2019-06-15T08:50:23.294Z,53.00
2019-06-15T08:53:10.302Z,53.10
2019-06-15T08:55:57.509Z,53.00
2019-06-15T08:58:55.068Z,52.80
2019-06-15T09:01:34.060Z,52.80
2019-06-15T09:04:22.258Z,52.70
2019-06-15T09:07:09.641Z,52.70
2019-06-15T09:09:57.299Z,52.70
2019-06-15T09:12:44.804Z,52.70
2019-06-15T09:15:50.518Z,52.70
2019-06-15T09:18:37.551Z,52.80
2019-06-15T09:21:24.619Z,53.10
2019-06-15T09:24:12.383Z,52.90
2019-06-15T09:26:59.644Z,52.70
2019-06-15T09:29:47.886Z,52.70
2019-06-15T09:32:34.894Z,52.70
2019-06-15T09:35:23.242Z,52.70
2019-06-15T09:38:10.238Z,52.60
2019-06-15T09:40:58.350Z,53.20
2019-06-15T09:43:45.914Z,53.00
2019-06-15T09:46:34.280Z,52.90
2019-06-15T09:49:22.104Z,52.70
2019-06-15T09:52:10.077Z,52.60
2019-06-15T09:54:57.384Z,52.60
2019-06-15T09:57:44.686Z,52.50
2019-06-15T10:00:31.784Z,52.50
2019-06-15T10:03:19.491Z,52.50
2019-06-15T10:06:11.506Z,52.50
2019-06-15T10:08:55.618Z,52.40
2019-06-15T10:11:43.299Z,52.30
2019-06-15T10:14:30.557Z,52.30
2019-06-15T10:17:18.795Z,52.20
2019-06-15T10:20:07.270Z,52.10
2019-06-15T10:22:55.642Z,52.10
2019-06-15T10:25:42.999Z,52.10
2019-06-15T10:28:30.146Z,52.50
2019-06-15T10:31:17.195Z,52.00
2019-06-15T10:34:04.691Z,52.00
2019-06-15T10:36:52.037Z,51.90
2019-06-15T10:39:39.309Z,51.80
2019-06-15T10:42:26.366Z,51.80
2019-06-15T10:45:14.619Z,51.70
2019-06-15T10:48:01.734Z,51.70
2019-06-15T10:50:49.254Z,51.70
2019-06-15T10:53:36.774Z,51.60
2019-06-15T10:56:24.021Z,51.60
2019-06-15T10:59:11.514Z,51.60
2019-06-15T11:01:58.769Z,51.50
2019-06-15T11:04:46.078Z,51.50
2019-06-15T11:07:34.405Z,51.60
2019-06-15T11:10:40.583Z,51.60
2019-06-15T11:13:28.244Z,51.60
2019-06-15T11:16:15.634Z,51.60
2019-06-15T11:19:03.132Z,51.60
2019-06-15T11:21:50.742Z,51.60
2019-06-15T11:24:38.135Z,51.50
2019-06-15T11:27:25.496Z,51.50
2019-06-15T11:30:14.293Z,51.50
2019-06-15T11:33:01.376Z,51.50
2019-06-15T11:35:49.369Z,51.50
2019-06-15T11:38:36.637Z,51.60
2019-06-15T11:41:24.158Z,51.60
2019-06-15T11:44:11.327Z,51.60
2019-06-15T11:46:59.312Z,51.60
2019-06-15T11:49:46.194Z,51.60
2019-06-15T11:52:34.513Z,51.60
2019-06-15T11:55:22.172Z,51.70
2019-06-15T11:58:09.725Z,51.70
2019-06-15T12:00:57.378Z,51.70
2019-06-15T12:03:44.577Z,51.80
2019-06-15T12:06:32.091Z,51.70
2019-06-15T12:09:19.411Z,51.80
2019-06-15T12:12:06.701Z,51.90
2019-06-15T12:14:54.355Z,51.90
2019-06-15T12:17:41.676Z,51.90
2019-06-15T12:20:29.285Z,51.90
2019-06-15T12:23:17.102Z,51.90
2019-06-15T12:26:04.615Z,52.00
2019-06-15T12:28:52.122Z,52.10
2019-06-15T12:31:40.696Z,52.70
2019-06-15T12:34:27.991Z,52.20
2019-06-15T12:37:15.774Z,52.10
2019-06-15T12:40:04.395Z,52.10
2019-06-15T12:42:51.391Z,52.10
2019-06-15T12:45:38.690Z,52.10
2019-06-15T12:48:25.941Z,52.10
2019-06-15T12:51:12.834Z,52.20
2019-06-15T12:53:59.837Z,52.20
2019-06-15T12:56:47.376Z,52.20
2019-06-15T12:59:34.678Z,52.20
2019-06-15T13:02:21.533Z,52.20
2019-06-15T13:05:08.966Z,52.10
2019-06-15T13:07:56.324Z,52.10
2019-06-15T13:10:43.322Z,52.10
2019-06-15T13:13:30.709Z,52.10
2019-06-15T13:16:18.398Z,52.10
2019-06-15T13:19:06.009Z,51.90
2019-06-15T13:21:53.356Z,52.00
2019-06-15T13:24:40.493Z,51.90
2019-06-15T13:27:28.300Z,51.90
2019-06-15T13:30:19.776Z,51.90
2019-06-15T13:33:06.928Z,52.30
2019-06-15T13:35:54.502Z,52.00
2019-06-15T13:38:41.903Z,51.90
2019-06-15T13:41:29.411Z,52.00
2019-06-15T13:44:16.955Z,51.90
2019-06-15T13:47:05.479Z,51.90
2019-06-15T13:49:52.917Z,51.80
2019-06-15T13:52:40.254Z,51.80
2019-06-15T13:55:27.506Z,51.60
2019-06-15T13:58:15.209Z,51.50
2019-06-15T14:01:02.700Z,51.30
2019-06-15T14:03:49.983Z,51.40
2019-06-15T14:06:36.993Z,51.20
2019-06-15T14:09:24.082Z,51.10
2019-06-15T14:12:11.662Z,51.10
2019-06-15T14:14:59.221Z,51.00
2019-06-15T14:17:46.665Z,51.00
2019-06-15T14:20:34.327Z,51.70
2019-06-15T14:23:21.374Z,51.00
2019-06-15T14:26:09.030Z,50.90
2019-06-15T14:28:56.250Z,51.00
2019-06-15T14:31:50.033Z,50.90
2019-06-15T14:34:32.842Z,50.90
2019-06-15T14:37:20.085Z,50.90
2019-06-15T14:40:08.172Z,50.90
2019-06-15T14:42:55.722Z,50.90
2019-06-15T14:45:55.808Z,50.90
2019-06-15T14:48:31.910Z,50.90
2019-06-15T14:51:19.247Z,50.90
2019-06-15T14:54:06.985Z,51.00
2019-06-15T14:56:56.613Z,50.80
2019-06-15T14:59:54.182Z,50.70
2019-06-15T15:02:32.710Z,50.60
2019-06-15T15:05:20.578Z,50.60
2019-06-15T15:08:08.267Z,50.50
2019-06-15T15:10:56.290Z,50.40
2019-06-15T15:13:43.382Z,50.40
2019-06-15T15:16:30.527Z,50.40
2019-06-15T15:19:17.794Z,50.30
2019-06-15T15:22:05.522Z,50.30
2019-06-15T15:24:53.051Z,50.20
2019-06-15T15:27:40.550Z,50.20
2019-06-15T15:30:40.928Z,50.10
2019-06-15T15:33:28.193Z,50.10
2019-06-15T15:36:16.951Z,50.00
2019-06-15T15:39:06.097Z,49.90
2019-06-15T15:41:56.115Z,49.90
2019-06-15T15:44:43.156Z,49.90
2019-06-15T15:47:30.222Z,49.80
2019-06-15T15:50:17.831Z,49.70
2019-06-15T15:53:05.545Z,49.80
2019-06-15T15:55:53.015Z,49.70
2019-06-15T15:58:40.516Z,49.60
2019-06-15T16:01:27.546Z,49.60
2019-06-15T16:04:16.921Z,49.50
2019-06-15T16:07:03.486Z,49.40
2019-06-15T16:09:50.788Z,49.50
2019-06-15T16:12:38.413Z,49.40
2019-06-15T16:15:26.490Z,49.40
2019-06-15T16:18:17.131Z,49.40
2019-06-15T16:21:06.458Z,49.30
2019-06-15T16:23:55.684Z,49.30
2019-06-15T16:26:43.418Z,49.30
2019-06-15T16:29:30.853Z,49.30
2019-06-15T16:32:18.360Z,49.40
2019-06-15T16:35:07.548Z,49.30
2019-06-15T16:37:55.889Z,49.20
2019-06-15T16:40:43.878Z,49.20
2019-06-15T16:43:31.186Z,49.20
2019-06-15T16:46:18.245Z,49.20
2019-06-15T16:49:05.835Z,49.30
2019-06-15T16:51:53.449Z,49.20
2019-06-15T16:54:41.010Z,49.30
2019-06-15T16:57:28.645Z,49.30
2019-06-15T17:00:20.251Z,49.30
2019-06-15T17:03:21.037Z,49.20
2019-06-15T17:05:57.428Z,49.20
2019-06-15T17:08:46.459Z,49.30
2019-06-15T17:11:36.570Z,49.30
2019-06-15T17:14:23.386Z,49.30
2019-06-15T17:17:11.005Z,49.40
2019-06-15T17:19:58.192Z,49.40
2019-06-15T17:22:47.273Z,49.50
2019-06-15T17:25:36.281Z,49.50
2019-06-15T17:28:26.084Z,49.40
2019-06-15T17:31:13.019Z,49.60
2019-06-15T17:33:59.966Z,49.50
2019-06-15T17:36:47.370Z,49.60
2019-06-15T17:39:37.456Z,49.60
2019-06-15T17:42:25.992Z,49.70
2019-06-15T17:45:13.045Z,49.80
2019-06-15T17:48:00.279Z,49.80
2019-06-15T17:50:48.022Z,49.90
2019-06-15T17:53:36.792Z,49.90
2019-06-15T17:56:26.672Z,49.90
2019-06-15T17:59:16.072Z,50.00
2019-06-15T18:02:02.519Z,50.10
2019-06-15T18:04:49.811Z,50.10
2019-06-15T18:07:37.250Z,50.20
2019-06-15T18:10:26.737Z,50.20
2019-06-15T18:13:16.571Z,50.30
2019-06-15T18:16:02.717Z,50.40
2019-06-15T18:18:50.327Z,50.50
2019-06-15T18:21:40.879Z,50.60
2019-06-15T18:24:26.693Z,50.60
2019-06-15T18:27:16.918Z,50.80
2019-06-15T18:30:06.520Z,50.70
2019-06-15T18:32:56.093Z,50.80
2019-06-15T18:35:43.203Z,50.90
2019-06-15T18:38:30.860Z,51.00
2019-06-15T18:41:19.232Z,50.90
2019-06-15T18:44:06.770Z,50.90
2019-06-15T18:46:56.267Z,50.90
2019-06-15T18:49:43.122Z,50.90
2019-06-15T18:52:30.551Z,50.90
2019-06-15T18:55:17.722Z,51.00
2019-06-15T18:58:05.597Z,50.90
2019-06-15T19:00:53.201Z,51.00
2019-06-15T19:03:40.665Z,51.00
2019-06-15T19:06:27.870Z,51.10
2019-06-15T19:09:16.219Z,51.10
2019-06-15T19:12:06.890Z,51.20
2019-06-15T19:14:52.927Z,51.30
2019-06-15T19:17:40.498Z,51.30
2019-06-15T19:20:27.908Z,51.40
2019-06-15T19:23:15.282Z,51.30
2019-06-15T19:26:02.745Z,51.30
2019-06-15T19:28:49.689Z,51.30
2019-06-15T19:31:37.633Z,51.30
2019-06-15T19:34:41.030Z,51.60
2019-06-15T19:37:14.350Z,51.90
2019-06-15T19:40:01.817Z,51.90
2019-06-15T19:42:49.495Z,52.00
2019-06-15T19:45:37.298Z,52.10
2019-06-15T19:48:26.754Z,52.20
2019-06-15T19:51:13.698Z,52.40
2019-06-15T19:54:01.194Z,52.40
2019-06-15T19:56:48.664Z,52.50
2019-06-15T19:59:36.658Z,52.60
2019-06-15T20:02:23.858Z,52.80
2019-06-15T20:05:11.511Z,52.70
2019-06-15T20:07:59.058Z,52.80
2019-06-15T20:10:47.333Z,52.90
2019-06-15T20:13:37.057Z,53.00
2019-06-15T20:16:23.998Z,53.00
2019-06-15T20:19:11.780Z,53.10
2019-06-15T20:22:00.835Z,53.10
2019-06-15T20:24:48.279Z,53.10
2019-06-15T20:27:37.496Z,53.20
2019-06-15T20:30:24.667Z,53.30
2019-06-15T20:33:12.298Z,53.40
2019-06-15T20:35:59.373Z,53.50
2019-06-15T20:38:47.028Z,53.50
2019-06-15T20:41:36.451Z,53.50
2019-06-15T20:44:26.068Z,53.50
2019-06-15T20:47:13.216Z,53.50
2019-06-15T20:50:00.590Z,53.90
2019-06-15T20:52:48.221Z,53.80
2019-06-15T20:55:37.327Z,53.90
2019-06-15T20:58:26.339Z,53.90
2019-06-15T21:01:13.602Z,54.50
2019-06-15T21:04:01.145Z,53.90
2019-06-15T21:06:48.439Z,53.90
2019-06-15T21:09:36.432Z,53.90
2019-06-15T21:12:26.759Z,54.00
2019-06-15T21:15:12.955Z,54.10
2019-06-15T21:18:00.247Z,54.20
2019-06-15T21:20:48.162Z,54.20
2019-06-15T21:23:37.237Z,54.20
2019-06-15T21:26:26.858Z,54.30
2019-06-15T21:29:13.841Z,54.40
2019-06-15T21:32:01.081Z,54.50
2019-06-15T21:34:48.347Z,54.50
2019-06-15T21:37:37.051Z,54.60
2019-06-15T21:40:27.079Z,54.60
2019-06-15T21:43:13.598Z,54.70
2019-06-15T21:46:01.181Z,54.90
2019-06-15T21:48:48.658Z,54.90
2019-06-15T21:51:36.803Z,54.90
2019-06-15T21:54:26.543Z,54.90
2019-06-15T21:57:12.953Z,55.00
2019-06-15T22:00:00.297Z,55.20
2019-06-15T22:02:47.923Z,55.20
2019-06-15T22:05:36.841Z,55.30
2019-06-15T22:08:26.315Z,55.30
2019-06-15T22:11:12.934Z,55.40
2019-06-15T22:14:00.542Z,55.50
2019-06-15T22:16:48.050Z,55.50
2019-06-15T22:19:36.911Z,55.50
2019-06-15T22:22:27.146Z,55.50
2019-06-15T22:25:15.825Z,55.50
2019-06-15T22:28:02.368Z,55.50
2019-06-15T22:30:50.323Z,55.50
2019-06-15T22:33:37.743Z,55.50
2019-06-15T22:36:27.898Z,55.50
2019-06-15T22:39:13.624Z,55.50
2019-06-15T22:42:01.050Z,55.60
2019-06-15T22:44:48.158Z,55.50
2019-06-15T22:47:36.255Z,55.60
2019-06-15T22:50:23.950Z,55.60
2019-06-15T22:53:11.221Z,55.50
2019-06-15T22:55:58.648Z,55.60
2019-06-15T22:58:46.308Z,55.70
2019-06-15T23:01:33.646Z,55.60
2019-06-15T23:04:21.150Z,55.70
2019-06-15T23:07:08.653Z,55.70
2019-06-15T23:09:56.331Z,55.70
2019-06-15T23:12:46.228Z,55.80
2019-06-15T23:15:33.927Z,55.80
2019-06-15T23:18:21.713Z,55.80
2019-06-15T23:21:09.525Z,55.70
2019-06-15T23:23:57.165Z,55.70
2019-06-15T23:26:46.195Z,55.80
2019-06-15T23:29:33.865Z,55.70
2019-06-15T23:32:21.681Z,55.70
2019-06-15T23:35:11.199Z,55.70
2019-06-15T23:37:58.509Z,55.80
2019-06-15T23:40:46.782Z,55.80
2019-06-15T23:43:36.085Z,55.80
2019-06-15T23:46:23.005Z,55.80
2019-06-15T23:49:10.347Z,55.80
2019-06-15T23:51:58.150Z,55.80
2019-06-15T23:54:46.439Z,55.90
2019-06-15T23:57:36.775Z,55.90
